Nearby METAR Reports

KLWM - Lawrence,MA, USA
Distance from station: NE 12mi, 19km
Updated: Tue, 25-Jun-2019 9:54am EDT
Mostly Cloudy
Mostly Cloudy
 Wind from E
Wind: E 3 mph , 6 km/h
Temperature: 70°F , 21°C
Dew Point: 61°F , 16°C
Humidity: 73%
Barometer: 29.92 inHg , 1013.2 hPa
Clouds: Mostly Cloudy
Visibility: 10 miles , 16 km
Cloud details: Partly Cloudy 9000 ft
Mostly Cloudy 11000 ft
2019/06/25 13:54 KLWM 251354Z 10003KT 10SM SCT090 BKN110 21/16 A2992 RMK AO2 SLP132 T02110161
KBED - Bedford,MA, USA
Distance from station: SSE 12mi, 19km
Updated: Tue, 25-Jun-2019 9:56am EDT
Overcast
Overcast
 Wind from calm
Wind: Calm
Temperature: 72°F , 22°C
Dew Point: 61°F , 16°C
Humidity: 69%
Barometer: 29.89 inHg , 1012.2 hPa
Clouds: Overcast
Visibility: 10 miles , 16 km
Cloud details: Overcast 9000 ft
2019/06/25 13:56 KBED 251356Z 00000KT 10SM OVC090 22/16 A2989 RMK AO2 SLP134 T02220161

Metar display script from Saratoga-Weather.org